Dixie, Idaho
Current Conditions -  °F | °C
As of 4:55 AM on Monday 22 Dec 2014 (Local Time) from KGIC Reporting Station
Overcast Overcast  
Wind Chill: 33°   Ceiling: 4600
Heat Index: 39°   Visibility: 10mi
Dew Point: 30°   Wind: 9mph
Humidity: 69%   Direction: 240°WSW
Pressure: 30.07"   Gusts: NA
Location:  45.8865°N, 115.105°W
Report Text: KGIC 221155Z AUTO 24008KT 10SM SCT040 BKN046 OVC055 04/M01 A3007 RMK AO1 70007 T00401013 10155 21099
Loading
Personal Weather Stations






























Interactive Weather Map New forecast layout! Learn more

10-Day Weather Forecast

Advertisements
Track Severe Weather on mobile